createdAt,value
2019-04-03T00:01:50.059Z,16.37
2019-04-03T00:04:17.037Z,15.73
2019-04-03T00:06:44.092Z,13.90
2019-04-03T00:09:11.225Z,16.00
2019-04-03T00:11:39.913Z,17.40
2019-04-03T00:14:07.159Z,17.90
2019-04-03T00:16:34.539Z,17.13
2019-04-03T00:19:01.797Z,14.80
2019-04-03T00:21:29.032Z,17.07
2019-04-03T00:23:56.145Z,17.00
2019-04-03T00:26:23.235Z,15.47
2019-04-03T00:28:50.722Z,16.03
2019-04-03T00:31:19.240Z,16.07
2019-04-03T00:33:46.567Z,14.93
2019-04-03T00:36:13.682Z,16.13
2019-04-03T00:38:40.979Z,16.60
2019-04-03T00:41:08.171Z,16.70
2019-04-03T00:43:35.315Z,15.70
2019-04-03T00:46:02.509Z,17.00
2019-04-03T00:48:29.628Z,15.60
2019-04-03T00:50:57.533Z,15.33
2019-04-03T00:53:25.947Z,15.80
2019-04-03T00:55:56.051Z,19.97
2019-04-03T00:58:39.488Z,19.97
2019-04-03T01:01:08.412Z,18.40
2019-04-03T01:03:35.642Z,16.83
2019-04-03T01:06:03.026Z,16.70
2019-04-03T01:08:30.621Z,17.83
2019-04-03T01:11:00.031Z,18.70
2019-04-03T01:13:27.079Z,19.00
2019-04-03T01:15:54.432Z,19.17
2019-04-03T01:18:21.539Z,17.90
2019-04-03T01:20:48.723Z,19.13
2019-04-03T01:23:15.728Z,18.03
2019-04-03T01:25:42.888Z,16.50
2019-04-03T01:28:11.719Z,16.83
2019-04-03T01:30:39.050Z,16.20
2019-04-03T01:33:06.180Z,17.03
2019-04-03T01:35:33.439Z,17.43
2019-04-03T01:38:01.024Z,18.13
2019-04-03T01:40:28.287Z,16.53
2019-04-03T01:42:55.388Z,18.00
2019-04-03T01:45:25.456Z,20.03
2019-04-03T01:47:51.843Z,17.73
2019-04-03T01:50:19.076Z,18.10
2019-04-03T01:52:46.059Z,17.00
2019-04-03T01:55:13.222Z,18.43
2019-04-03T01:57:40.332Z,18.67
2019-04-03T02:00:08.238Z,18.53
2019-04-03T02:02:36.877Z,17.83
2019-04-03T02:05:04.856Z,17.67
2019-04-03T02:07:32.024Z,18.93
2019-04-03T02:09:59.118Z,18.83
2019-04-03T02:12:26.254Z,18.97
2019-04-03T02:14:53.476Z,17.67
2019-04-03T02:17:23.149Z,16.23
2019-04-03T02:19:49.420Z,18.80
2019-04-03T02:22:16.640Z,17.90
2019-04-03T02:24:43.767Z,18.30
2019-04-03T02:27:10.891Z,17.80
2019-04-03T02:29:39.756Z,18.20
2019-04-03T02:32:07.444Z,17.30
2019-04-03T02:34:35.996Z,18.90
2019-04-03T02:37:03.603Z,20.00
2019-04-03T02:39:30.653Z,18.33
2019-04-03T02:41:57.868Z,17.67
2019-04-03T02:44:24.989Z,18.53
2019-04-03T02:46:52.133Z,17.63
2019-04-03T02:49:19.436Z,18.33
2019-04-03T02:51:46.654Z,21.30
2019-04-03T02:54:36.249Z,18.93
2019-04-03T02:57:04.029Z,19.43
2019-04-03T02:59:31.135Z,17.70
2019-04-03T03:01:58.545Z,18.30
2019-04-03T03:04:26.114Z,18.83
2019-04-03T03:06:53.514Z,16.60
2019-04-03T03:09:20.908Z,16.80
2019-04-03T03:11:48.354Z,18.17
2019-04-03T03:14:16.893Z,17.37
2019-04-03T03:16:44.156Z,16.20
2019-04-03T03:19:11.863Z,17.03
2019-04-03T03:21:39.462Z,16.17
2019-04-03T03:24:07.720Z,14.50
2019-04-03T03:26:37.375Z,13.03
2019-04-03T03:29:16.534Z,12.53
2019-04-03T03:31:59.747Z,14.17
2019-04-03T03:34:05.052Z,13.07
2019-04-03T03:36:32.627Z,13.33
2019-04-03T03:39:00.099Z,13.07
2019-04-03T03:41:28.521Z,13.07
2019-04-03T03:43:57.407Z,13.00
2019-04-03T03:46:28.248Z,12.80
2019-04-03T03:48:56.144Z,13.30
2019-04-03T03:51:24.574Z,12.83
2019-04-03T03:53:52.347Z,13.13
2019-04-03T03:56:19.991Z,14.43
2019-04-03T03:58:48.664Z,12.53
2019-04-03T04:01:16.407Z,13.03
2019-04-03T04:03:43.565Z,12.43
2019-04-03T04:06:11.517Z,13.67
2019-04-03T04:08:42.565Z,13.07
2019-04-03T04:11:07.883Z,12.27
2019-04-03T04:13:35.086Z,13.33
2019-04-03T04:16:04.281Z,12.20
2019-04-03T04:18:31.413Z,13.67
2019-04-03T04:20:59.146Z,12.47
2019-04-03T04:23:26.673Z,12.73
2019-04-03T04:25:54.109Z,12.37
2019-04-03T04:28:21.564Z,12.10
2019-04-03T04:30:48.848Z,16.17
2019-04-03T04:33:17.219Z,14.93
2019-04-03T04:35:45.127Z,16.07
2019-04-03T04:38:12.434Z,15.63
2019-04-03T04:40:39.635Z,15.70
2019-04-03T04:43:08.271Z,16.53
2019-04-03T04:45:35.884Z,19.17
2019-04-03T04:48:03.435Z,21.07
2019-04-03T04:50:30.724Z,18.63
2019-04-03T04:52:58.688Z,16.20
2019-04-03T04:55:26.575Z,20.33
2019-04-03T04:57:53.704Z,16.57
2019-04-03T05:00:20.908Z,17.20
2019-04-03T05:02:48.881Z,17.63
2019-04-03T05:05:17.587Z,18.00
2019-04-03T05:07:44.839Z,17.63
2019-04-03T05:10:12.141Z,16.83
2019-04-03T05:12:42.282Z,17.17
2019-04-03T05:15:08.441Z,17.20
2019-04-03T05:17:35.934Z,18.63
2019-04-03T05:20:04.090Z,14.83
2019-04-03T05:22:31.355Z,22.20
2019-04-03T05:24:59.600Z,19.67
2019-04-03T05:27:27.188Z,19.97
2019-04-03T05:29:54.360Z,20.10
2019-04-03T05:32:21.815Z,19.23
2019-04-03T05:34:49.179Z,17.10
2019-04-03T05:37:18.042Z,20.90
2019-04-03T05:39:45.861Z,20.57
2019-04-03T05:42:13.261Z,52.70
2019-04-03T05:44:40.375Z,51.83
2019-04-03T05:47:08.590Z,17.67
2019-04-03T05:49:36.058Z,16.23
2019-04-03T05:52:04.102Z,18.10
2019-04-03T05:54:32.331Z,33.33
2019-04-03T05:56:59.555Z,40.50
2019-04-03T05:59:26.953Z,18.87
2019-04-03T06:01:54.136Z,18.57
2019-04-03T06:04:21.394Z,26.93
2019-04-03T06:06:48.409Z,33.27
2019-04-03T06:09:15.655Z,27.27
2019-04-03T06:11:43.160Z,20.80
2019-04-03T06:14:10.276Z,17.10
2019-04-03T06:16:37.632Z,15.43
2019-04-03T06:19:06.383Z,15.57
2019-04-03T06:21:34.057Z,17.43
2019-04-03T06:24:01.186Z,17.40
2019-04-03T06:26:28.556Z,18.27
2019-04-03T06:28:55.805Z,22.87
2019-04-03T06:31:24.313Z,22.50
2019-04-03T06:33:52.335Z,22.93
2019-04-03T06:36:19.557Z,20.17
2019-04-03T06:38:46.663Z,18.07
2019-04-03T06:41:13.926Z,17.73
2019-04-03T06:43:41.024Z,16.07
2019-04-03T06:46:08.520Z,16.00
2019-04-03T06:48:36.600Z,14.90
2019-04-03T06:51:04.612Z,17.10
2019-04-03T06:53:31.851Z,15.30
2019-04-03T06:55:59.372Z,15.53
2019-04-03T06:58:36.828Z,16.20
2019-04-03T07:00:55.687Z,16.60
2019-04-03T07:03:23.180Z,16.63
2019-04-03T07:05:50.468Z,17.40
2019-04-03T07:08:29.030Z,16.57
2019-04-03T07:10:55.072Z,16.10
2019-04-03T07:13:15.567Z,16.60
2019-04-03T07:15:43.017Z,15.50
2019-04-03T07:18:10.412Z,15.30
2019-04-03T07:20:37.692Z,16.03
2019-04-03T07:23:04.957Z,16.17
2019-04-03T07:25:34.007Z,15.03
2019-04-03T07:28:01.258Z,15.73
2019-04-03T07:30:28.753Z,14.30
2019-04-03T07:32:57.909Z,14.63
2019-04-03T07:35:25.108Z,15.47
2019-04-03T07:37:52.702Z,15.43
2019-04-03T07:40:20.726Z,15.50
2019-04-03T07:42:49.062Z,15.13
2019-04-03T07:45:16.276Z,15.17
2019-04-03T07:47:43.625Z,16.10
2019-04-03T07:50:11.738Z,16.37
2019-04-03T07:52:39.268Z,25.00
2019-04-03T07:55:06.690Z,18.67
2019-04-03T07:57:34.455Z,15.40
2019-04-03T08:00:01.721Z,16.20
2019-04-03T08:02:29.129Z,14.90
2019-04-03T08:05:00.032Z,14.10
2019-04-03T08:07:25.864Z,14.23
2019-04-03T08:09:52.951Z,15.37
2019-04-03T08:12:20.373Z,15.50
2019-04-03T08:14:47.715Z,15.70
2019-04-03T08:17:16.512Z,14.47
2019-04-03T08:19:45.440Z,14.70
2019-04-03T08:22:13.070Z,14.70
2019-04-03T08:24:40.315Z,15.07
2019-04-03T08:27:10.532Z,15.00
2019-04-03T08:29:38.694Z,16.07
2019-04-03T08:32:06.531Z,16.63
2019-04-03T08:34:39.922Z,14.90
2019-04-03T08:37:09.726Z,17.47
2019-04-03T08:39:36.772Z,16.53
2019-04-03T08:42:04.103Z,17.50
2019-04-03T08:44:31.604Z,18.60
2019-04-03T08:46:58.851Z,17.90
2019-04-03T08:49:26.694Z,16.30
2019-04-03T08:51:53.956Z,17.97
2019-04-03T08:54:21.095Z,16.83
2019-04-03T08:56:49.357Z,16.27
2019-04-03T08:59:16.703Z,17.43
2019-04-03T09:01:43.898Z,17.27
2019-04-03T09:04:11.003Z,17.13
2019-04-03T09:06:38.409Z,16.27
2019-04-03T09:09:08.269Z,15.83
2019-04-03T09:11:36.306Z,18.20
2019-04-03T09:14:04.580Z,18.00
2019-04-03T09:16:32.210Z,16.73
2019-04-03T09:18:59.607Z,15.90
2019-04-03T09:21:26.871Z,15.83
2019-04-03T09:23:56.672Z,17.53
2019-04-03T09:26:23.289Z,16.60
2019-04-03T09:28:50.795Z,15.80
2019-04-03T09:31:19.842Z,14.63
2019-04-03T09:33:47.470Z,16.23
2019-04-03T09:36:14.976Z,15.63
2019-04-03T09:38:42.291Z,17.30
2019-04-03T09:41:09.451Z,15.57
2019-04-03T09:43:39.056Z,15.80
2019-04-03T09:46:05.941Z,17.60
2019-04-03T09:48:34.782Z,15.80
2019-04-03T09:51:02.684Z,16.97
2019-04-03T09:53:30.109Z,17.20
2019-04-03T09:55:57.420Z,15.20
2019-04-03T09:58:24.735Z,15.27
2019-04-03T10:00:52.285Z,16.70
2019-04-03T10:03:20.862Z,16.37
2019-04-03T10:05:48.657Z,16.20
2019-04-03T10:08:15.797Z,15.60
2019-04-03T10:10:43.262Z,16.87
2019-04-03T10:13:10.537Z,16.37
2019-04-03T10:15:38.253Z,17.10
2019-04-03T10:18:06.933Z,17.53
2019-04-03T10:20:34.640Z,17.00
2019-04-03T10:23:02.074Z,17.67
2019-04-03T10:25:29.404Z,18.47
2019-04-03T10:27:56.850Z,17.07
2019-04-03T10:30:24.359Z,17.40
2019-04-03T10:32:51.688Z,17.73
2019-04-03T10:35:18.964Z,18.03
2019-04-03T10:37:47.032Z,16.87
2019-04-03T10:40:15.534Z,16.37
2019-04-03T10:42:42.964Z,17.23
2019-04-03T10:45:10.994Z,17.53
2019-04-03T10:47:42.049Z,17.33
2019-04-03T10:50:08.177Z,17.23
2019-04-03T10:52:35.627Z,18.33
2019-04-03T10:55:03.107Z,17.97
2019-04-03T10:57:31.740Z,17.00
2019-04-03T11:00:00.076Z,18.17
2019-04-03T11:02:27.578Z,16.43
2019-04-03T11:04:54.793Z,17.63
2019-04-03T11:07:22.385Z,17.07
2019-04-03T11:09:49.576Z,18.70
2019-04-03T11:12:17.013Z,17.17
2019-04-03T11:14:44.340Z,18.97
2019-04-03T11:17:12.045Z,19.00
2019-04-03T11:19:39.753Z,17.60
2019-04-03T11:22:07.303Z,18.00
2019-04-03T11:24:37.727Z,19.20
2019-04-03T11:27:04.042Z,19.60
2019-04-03T11:29:31.614Z,18.63
2019-04-03T11:31:59.078Z,20.07
2019-04-03T11:34:26.724Z,19.30
2019-04-03T11:36:54.079Z,18.27
2019-04-03T11:39:21.460Z,19.40
2019-04-03T11:41:48.869Z,17.67
2019-04-03T11:44:16.129Z,17.93
2019-04-03T11:46:43.432Z,18.60
2019-04-03T11:49:10.736Z,16.63
2019-04-03T11:51:37.992Z,19.80
2019-04-03T11:54:08.223Z,18.47
2019-04-03T11:56:34.743Z,18.30
2019-04-03T11:59:02.037Z,17.80
2019-04-03T12:01:29.363Z,17.03
2019-04-03T12:03:56.752Z,18.50
2019-04-03T12:06:24.143Z,17.33
2019-04-03T12:08:51.373Z,18.40
2019-04-03T12:11:19.653Z,17.97
2019-04-03T12:13:46.826Z,18.23
2019-04-03T12:16:14.064Z,18.03
2019-04-03T12:18:41.719Z,18.50
2019-04-03T12:21:10.665Z,19.87
2019-04-03T12:23:39.364Z,20.07
2019-04-03T12:26:07.056Z,19.07
2019-04-03T12:28:34.345Z,18.53
2019-04-03T12:31:01.643Z,18.87
2019-04-03T12:33:28.957Z,19.13
2019-04-03T12:35:56.468Z,18.80
2019-04-03T12:38:23.886Z,16.50
2019-04-03T12:40:51.236Z,16.43
2019-04-03T12:43:18.687Z,17.67
2019-04-03T12:45:45.901Z,16.90
2019-04-03T12:48:13.219Z,12.87
2019-04-03T12:50:41.137Z,16.53
2019-04-03T12:53:08.428Z,16.63
2019-04-03T12:55:35.684Z,14.33
2019-04-03T12:58:05.037Z,16.87
2019-04-03T13:00:32.071Z,15.80
2019-04-03T13:02:59.321Z,17.47
2019-04-03T13:05:26.585Z,16.43
2019-04-03T13:07:53.825Z,16.37
2019-04-03T13:10:21.267Z,20.27
2019-04-03T13:12:48.701Z,18.87
2019-04-03T13:15:16.056Z,17.33
2019-04-03T13:17:44.301Z,17.17
2019-04-03T13:20:14.467Z,17.13
2019-04-03T13:22:42.615Z,18.13
2019-04-03T13:25:10.778Z,14.33
2019-04-03T13:27:38.008Z,17.50
2019-04-03T13:30:06.207Z,16.30
2019-04-03T13:32:33.780Z,16.57
2019-04-03T13:35:04.249Z,18.20
2019-04-03T13:37:32.451Z,16.00
2019-04-03T13:40:00.925Z,17.23
2019-04-03T13:42:31.085Z,18.00
2019-04-03T13:44:58.857Z,15.60
2019-04-03T13:47:27.396Z,18.30
2019-04-03T13:49:55.285Z,14.40
2019-04-03T13:52:22.624Z,15.90
2019-04-03T13:54:50.238Z,16.63
2019-04-03T13:57:17.629Z,16.83
2019-04-03T13:59:44.773Z,11.40
2019-04-03T14:02:13.611Z,15.07
2019-04-03T14:04:41.481Z,14.60
2019-04-03T14:07:10.204Z,15.07
2019-04-03T14:09:38.276Z,15.60
2019-04-03T14:12:06.361Z,16.60
2019-04-03T14:14:34.284Z,14.93
2019-04-03T14:17:01.550Z,15.07
2019-04-03T14:19:42.573Z,14.47
2019-04-03T14:22:00.741Z,15.80
2019-04-03T14:24:39.239Z,15.10
2019-04-03T14:26:58.924Z,15.07
2019-04-03T14:29:28.881Z,13.60
2019-04-03T14:31:56.697Z,14.27
2019-04-03T14:34:24.290Z,14.60
2019-04-03T14:36:51.626Z,13.30
2019-04-03T14:39:18.870Z,14.20
2019-04-03T14:41:46.439Z,13.70
2019-04-03T14:44:14.120Z,14.53
2019-04-03T14:46:41.437Z,14.67
2019-04-03T14:49:08.923Z,14.27
2019-04-03T14:51:37.614Z,15.03
2019-04-03T14:54:07.762Z,14.80
2019-04-03T14:56:34.194Z,12.20
2019-04-03T14:59:01.950Z,12.70
2019-04-03T15:01:29.169Z,13.90
2019-04-03T15:03:59.965Z,14.47
2019-04-03T15:06:26.752Z,14.80
2019-04-03T15:08:54.694Z,14.10
2019-04-03T15:11:22.555Z,12.70
2019-04-03T15:13:51.077Z,12.60
2019-04-03T15:16:18.953Z,12.53
2019-04-03T15:18:46.190Z,14.13
2019-04-03T15:21:13.464Z,13.40
2019-04-03T15:23:42.062Z,11.87
2019-04-03T15:26:09.406Z,13.10
2019-04-03T15:28:36.563Z,12.83
2019-04-03T15:31:04.326Z,14.10
2019-04-03T15:33:31.832Z,13.07
2019-04-03T15:35:59.107Z,13.43
2019-04-03T15:38:26.648Z,13.30
2019-04-03T15:40:57.200Z,12.03
2019-04-03T15:43:23.500Z,12.13
2019-04-03T15:45:51.339Z,12.77
2019-04-03T15:48:20.904Z,11.80
2019-04-03T15:50:47.683Z,12.33
2019-04-03T15:53:14.979Z,12.33
2019-04-03T15:55:42.764Z,12.63
2019-04-03T15:58:09.843Z,12.80
2019-04-03T16:00:37.073Z,12.47
2019-04-03T16:03:05.415Z,12.40
2019-04-03T16:05:35.695Z,12.03
2019-04-03T16:08:01.948Z,11.13
2019-04-03T16:10:29.656Z,13.40
2019-04-03T16:12:56.972Z,12.10
2019-04-03T16:15:24.554Z,13.27
2019-04-03T16:17:51.855Z,13.97
2019-04-03T16:20:19.194Z,11.77
2019-04-03T16:22:46.405Z,11.70
2019-04-03T16:25:16.140Z,14.10
2019-04-03T16:27:43.102Z,13.50
2019-04-03T16:30:14.198Z,13.80
2019-04-03T16:32:39.992Z,13.60
2019-04-03T16:35:07.724Z,13.37
2019-04-03T16:37:34.884Z,13.03
2019-04-03T16:40:04.127Z,12.00
2019-04-03T16:42:31.197Z,13.90
2019-04-03T16:44:58.429Z,12.80
2019-04-03T16:47:27.593Z,13.70
2019-04-03T16:49:55.793Z,13.50
2019-04-03T16:52:23.232Z,13.57
2019-04-03T16:54:50.898Z,12.97
2019-04-03T16:57:21.094Z,13.93
2019-04-03T16:59:46.739Z,14.00
2019-04-03T17:02:14.061Z,13.37
2019-04-03T17:04:41.631Z,14.20
2019-04-03T17:07:08.772Z,12.80
2019-04-03T17:09:37.805Z,13.10
2019-04-03T17:12:05.420Z,13.50
2019-04-03T17:14:33.125Z,12.90
2019-04-03T17:17:02.160Z,13.60
2019-04-03T17:19:29.725Z,11.60
2019-04-03T17:21:57.184Z,12.60
2019-04-03T17:24:24.671Z,12.87
2019-04-03T17:26:57.425Z,13.70
2019-04-03T17:29:20.887Z,12.10
2019-04-03T17:31:48.372Z,13.33
2019-04-03T17:34:15.847Z,13.43
2019-04-03T17:36:43.404Z,14.00
2019-04-03T17:39:12.475Z,13.50
2019-04-03T17:41:41.095Z,12.50
2019-04-03T17:44:08.932Z,13.43
2019-04-03T17:46:35.931Z,13.67
2019-04-03T17:49:03.267Z,14.30
2019-04-03T17:51:33.293Z,14.57
2019-04-03T17:53:59.569Z,14.60
2019-04-03T17:56:26.848Z,14.73
2019-04-03T17:58:53.963Z,15.03
2019-04-03T18:01:22.501Z,14.07
2019-04-03T18:03:50.176Z,14.03
2019-04-03T18:06:18.530Z,16.60
2019-04-03T18:08:46.007Z,16.70
2019-04-03T18:11:13.813Z,15.93
2019-04-03T18:13:41.104Z,13.67
2019-04-03T18:16:08.328Z,12.67
2019-04-03T18:18:35.556Z,15.47
2019-04-03T18:21:02.787Z,15.50
2019-04-03T18:23:29.909Z,15.80
2019-04-03T18:25:59.370Z,17.47
2019-04-03T18:28:26.101Z,15.73
2019-04-03T18:30:53.184Z,16.03
2019-04-03T18:33:20.319Z,16.47
2019-04-03T18:35:48.544Z,20.87
2019-04-03T18:38:15.814Z,17.17
2019-04-03T18:40:45.573Z,14.77
2019-04-03T18:43:12.920Z,18.30
2019-04-03T18:45:40.043Z,16.67
2019-04-03T18:48:07.060Z,17.63
2019-04-03T18:50:35.286Z,16.90
2019-04-03T18:53:02.939Z,15.37
2019-04-03T18:55:30.244Z,15.70
2019-04-03T18:57:57.725Z,15.83
2019-04-03T19:00:25.295Z,15.37
2019-04-03T19:02:53.211Z,16.00
2019-04-03T19:05:20.560Z,15.03
2019-04-03T19:07:47.863Z,16.10
2019-04-03T19:10:18.286Z,17.10
2019-04-03T19:12:45.403Z,15.70
2019-04-03T19:15:12.733Z,15.77
2019-04-03T19:17:40.378Z,16.60
2019-04-03T19:20:11.484Z,15.30
2019-04-03T19:22:37.739Z,14.93
2019-04-03T19:25:05.627Z,16.53
2019-04-03T19:27:33.064Z,15.93
2019-04-03T19:30:00.689Z,15.47
2019-04-03T19:32:28.529Z,16.50
2019-04-03T19:34:55.782Z,16.47
2019-04-03T19:37:23.079Z,15.37
2019-04-03T19:39:50.462Z,15.80
2019-04-03T19:42:18.311Z,16.03
2019-04-03T19:44:47.157Z,15.93
2019-04-03T19:47:14.803Z,15.40
2019-04-03T19:49:41.846Z,16.33
2019-04-03T19:52:09.853Z,17.80
2019-04-03T19:54:37.199Z,16.20
2019-04-03T19:57:04.962Z,15.77
2019-04-03T19:59:34.594Z,15.17
2019-04-03T20:02:01.427Z,15.43
2019-04-03T20:04:29.073Z,15.90
2019-04-03T20:06:56.211Z,15.77
2019-04-03T20:09:23.832Z,15.70
2019-04-03T20:11:53.258Z,15.43
2019-04-03T20:14:20.677Z,14.73
2019-04-03T20:16:47.987Z,16.40
2019-04-03T20:19:15.180Z,16.90
2019-04-03T20:21:42.346Z,15.40
2019-04-03T20:24:12.609Z,16.27
2019-04-03T20:26:38.559Z,15.00
2019-04-03T20:29:05.687Z,16.50
2019-04-03T20:31:35.539Z,15.07
2019-04-03T20:34:01.762Z,16.20
2019-04-03T20:36:28.875Z,14.87
2019-04-03T20:38:57.752Z,13.87
2019-04-03T20:41:24.992Z,15.17
2019-04-03T20:43:52.088Z,15.37
2019-04-03T20:46:19.289Z,15.73
2019-04-03T20:48:46.556Z,14.47
2019-04-03T20:51:13.677Z,14.37
2019-04-03T20:53:42.866Z,15.63
2019-04-03T20:56:09.997Z,17.23
2019-04-03T20:58:39.944Z,15.30
2019-04-03T21:01:07.189Z,15.87
2019-04-03T21:03:34.495Z,15.33
2019-04-03T21:06:01.707Z,14.33
2019-04-03T21:08:31.431Z,14.40
2019-04-03T21:10:58.235Z,14.70
2019-04-03T21:13:25.508Z,15.30
2019-04-03T21:15:52.667Z,14.23
2019-04-03T21:18:20.666Z,16.00
2019-04-03T21:20:48.526Z,17.00
2019-04-03T21:23:15.807Z,14.23
2019-04-03T21:25:43.037Z,15.40
2019-04-03T21:28:11.016Z,14.30
2019-04-03T21:30:38.775Z,15.93
2019-04-03T21:33:05.894Z,14.50
2019-04-03T21:35:35.165Z,15.40
2019-04-03T21:38:02.687Z,13.40
2019-04-03T21:40:29.887Z,15.27
2019-04-03T21:42:57.931Z,16.30
2019-04-03T21:45:25.543Z,15.67
2019-04-03T21:47:53.102Z,14.43
2019-04-03T21:50:20.294Z,15.20
2019-04-03T21:52:47.391Z,14.27
2019-04-03T21:55:14.644Z,14.67
2019-04-03T21:57:41.683Z,15.93
2019-04-03T22:00:13.205Z,13.50
2019-04-03T22:02:38.665Z,15.47
2019-04-03T22:05:07.306Z,16.47
2019-04-03T22:07:34.732Z,14.50
2019-04-03T22:10:02.634Z,15.87
2019-04-03T22:12:29.876Z,15.07
2019-04-03T22:14:56.982Z,14.87
2019-04-03T22:17:24.240Z,15.63
2019-04-03T22:19:51.431Z,16.47
2019-04-03T22:22:18.642Z,16.13
2019-04-03T22:24:45.879Z,14.57
2019-04-03T22:27:13.116Z,14.17
2019-04-03T22:29:40.247Z,16.00
2019-04-03T22:32:07.279Z,14.63
2019-04-03T22:34:34.331Z,16.03
2019-04-03T22:37:03.887Z,16.07
2019-04-03T22:39:30.198Z,15.57
2019-04-03T22:41:57.344Z,13.90
2019-04-03T22:44:24.450Z,15.00
2019-04-03T22:46:52.050Z,15.33
2019-04-03T22:49:20.587Z,15.77
2019-04-03T22:51:48.132Z,14.90
2019-04-03T22:54:15.439Z,15.60
2019-04-03T22:56:42.756Z,14.17
2019-04-03T22:59:09.755Z,15.50
2019-04-03T23:01:36.943Z,14.70
2019-04-03T23:06:40.191Z,13.90
2019-04-03T23:09:07.769Z,15.33
2019-04-03T23:11:35.321Z,15.43
2019-04-03T23:14:04.785Z,14.20
2019-04-03T23:16:33.652Z,15.20
2019-04-03T23:19:01.219Z,16.50
2019-04-03T23:21:29.387Z,14.83
2019-04-03T23:23:57.888Z,15.10
2019-04-03T23:26:25.854Z,13.10
2019-04-03T23:28:53.948Z,14.67
2019-04-03T23:31:21.486Z,16.00
2019-04-03T23:33:50.617Z,15.33
2019-04-03T23:36:18.474Z,15.33
2019-04-03T23:38:46.551Z,14.27
2019-04-03T23:41:13.995Z,15.60
2019-04-03T23:43:42.495Z,15.10
2019-04-03T23:46:10.060Z,12.57
2019-04-03T23:48:37.868Z,14.57
2019-04-03T23:51:05.975Z,14.87
2019-04-03T23:53:34.267Z,18.03
2019-04-03T23:56:01.863Z,14.70
2019-04-03T23:58:30.672Z,14.90
